sensor_id;sensor_type;location;lat;lon;timestamp;pressure;altitude;pressure_sealevel;temperature;humidity
54870;BME280;40756;-37.950;145.008;2023-03-18T00:01:35;100881.14;;;26.56;28.35
54870;BME280;40756;-37.950;145.008;2023-03-18T00:04:05;100880.91;;;27.36;27.28
54870;BME280;40756;-37.950;145.008;2023-03-18T00:06:36;100893.67;;;27.16;26.50
54870;BME280;40756;-37.950;145.008;2023-03-18T00:09:05;100893.15;;;27.38;26.94
54870;BME280;40756;-37.950;145.008;2023-03-18T00:11:35;100901.79;;;27.39;26.39
54870;BME280;40756;-37.950;145.008;2023-03-18T00:14:06;100887.34;;;26.71;26.77
54870;BME280;40756;-37.950;145.008;2023-03-18T00:16:36;100887.31;;;27.19;26.41
54870;BME280;40756;-37.950;145.008;2023-03-18T00:19:05;100880.97;;;27.50;26.59
54870;BME280;40756;-37.950;145.008;2023-03-18T00:21:35;100879.85;;;28.03;26.27
54870;BME280;40756;-37.950;145.008;2023-03-18T00:24:05;100873.18;;;26.82;27.62
54870;BME280;40756;-37.950;145.008;2023-03-18T00:26:35;100871.22;;;27.12;26.37
54870;BME280;40756;-37.950;145.008;2023-03-18T00:29:05;100877.10;;;27.26;27.07
54870;BME280;40756;-37.950;145.008;2023-03-18T00:31:34;100864.40;;;27.08;26.57
54870;BME280;40756;-37.950;145.008;2023-03-18T00:34:05;100865.55;;;27.96;26.63
54870;BME280;40756;-37.950;145.008;2023-03-18T00:36:35;100860.75;;;27.80;26.54
54870;BME280;40756;-37.950;145.008;2023-03-18T00:39:04;100858.77;;;27.66;26.44
54870;BME280;40756;-37.950;145.008;2023-03-18T00:41:33;100858.74;;;27.02;26.99
54870;BME280;40756;-37.950;145.008;2023-03-18T00:44:03;100849.71;;;27.28;25.38
54870;BME280;40756;-37.950;145.008;2023-03-18T00:46:35;100855.26;;;28.06;25.78
54870;BME280;40756;-37.950;145.008;2023-03-18T00:49:06;100854.16;;;27.69;26.43
54870;BME280;40756;-37.950;145.008;2023-03-18T00:51:37;100853.02;;;28.08;26.53
54870;BME280;40756;-37.950;145.008;2023-03-18T00:54:09;100862.90;;;27.76;25.44
54870;BME280;40756;-37.950;145.008;2023-03-18T00:56:39;100859.89;;;27.94;24.90
54870;BME280;40756;-37.950;145.008;2023-03-18T00:59:09;100863.05;;;28.10;25.34
54870;BME280;40756;-37.950;145.008;2023-03-18T01:01:38;100855.10;;;28.21;25.34
54870;BME280;40756;-37.950;145.008;2023-03-18T01:04:08;100845.72;;;28.30;24.81
54870;BME280;40756;-37.950;145.008;2023-03-18T01:06:38;100840.84;;;28.19;25.04
54870;BME280;40756;-37.950;145.008;2023-03-18T01:09:08;100831.02;;;28.70;24.51
54870;BME280;40756;-37.950;145.008;2023-03-18T01:11:38;100829.41;;;28.80;24.16
54870;BME280;40756;-37.950;145.008;2023-03-18T01:14:09;100821.90;;;28.25;24.45
54870;BME280;40756;-37.950;145.008;2023-03-18T01:16:39;100816.62;;;28.40;24.94
54870;BME280;40756;-37.950;145.008;2023-03-18T01:19:08;100802.03;;;28.65;24.22
54870;BME280;40756;-37.950;145.008;2023-03-18T01:21:37;100800.38;;;28.77;24.27
54870;BME280;40756;-37.950;145.008;2023-03-18T01:24:07;100800.82;;;28.27;24.61
54870;BME280;40756;-37.950;145.008;2023-03-18T01:26:37;100816.49;;;28.33;24.47
54870;BME280;40756;-37.950;145.008;2023-03-18T01:29:06;100796.86;;;28.13;23.60
54870;BME280;40756;-37.950;145.008;2023-03-18T01:31:36;100792.56;;;28.71;23.71
54870;BME280;40756;-37.950;145.008;2023-03-18T01:34:05;100794.21;;;28.81;23.57
54870;BME280;40756;-37.950;145.008;2023-03-18T01:36:34;100790.30;;;28.86;23.75
54870;BME280;40756;-37.950;145.008;2023-03-18T01:39:04;100802.84;;;28.98;23.82
54870;BME280;40756;-37.950;145.008;2023-03-18T01:41:34;100791.40;;;28.86;23.06
54870;BME280;40756;-37.950;145.008;2023-03-18T01:44:05;100786.86;;;28.71;23.36
54870;BME280;40756;-37.950;145.008;2023-03-18T01:46:38;100784.70;;;28.58;24.38
54870;BME280;40756;-37.950;145.008;2023-03-18T01:49:12;100772.28;;;29.01;23.20
54870;BME280;40756;-37.950;145.008;2023-03-18T01:51:49;100777.47;;;28.96;22.82
54870;BME280;40756;-37.950;145.008;2023-03-18T01:54:22;100768.19;;;29.15;23.33
54870;BME280;40756;-37.950;145.008;2023-03-18T01:56:52;100764.30;;;29.26;22.52
54870;BME280;40756;-37.950;145.008;2023-03-18T01:59:26;100768.35;;;29.12;23.25
54870;BME280;40756;-37.950;145.008;2023-03-18T02:02:01;100761.20;;;28.91;22.72
54870;BME280;40756;-37.950;145.008;2023-03-18T02:04:36;100748.09;;;29.25;22.10
54870;BME280;40756;-37.950;145.008;2023-03-18T02:07:12;100746.44;;;29.91;22.43
54870;BME280;40756;-37.950;145.008;2023-03-18T02:09:43;100756.81;;;30.34;23.00
54870;BME280;40756;-37.950;145.008;2023-03-18T02:12:14;100748.39;;;30.31;22.11
54870;BME280;40756;-37.950;145.008;2023-03-18T02:14:44;100739.85;;;30.31;20.71
54870;BME280;40756;-37.950;145.008;2023-03-18T02:17:17;100750.89;;;30.74;21.34
54870;BME280;40756;-37.950;145.008;2023-03-18T02:19:57;100729.99;;;30.55;20.62
54870;BME280;40756;-37.950;145.008;2023-03-18T02:22:31;100709.47;;;31.16;20.77
54870;BME280;40756;-37.950;145.008;2023-03-18T02:25:11;100719.43;;;30.88;21.00
54870;BME280;40756;-37.950;145.008;2023-03-18T02:27:45;100714.85;;;31.38;19.39
54870;BME280;40756;-37.950;145.008;2023-03-18T02:30:19;100703.10;;;31.80;20.63
54870;BME280;40756;-37.950;145.008;2023-03-18T02:32:52;100693.69;;;32.09;18.57
54870;BME280;40756;-37.950;145.008;2023-03-18T02:35:22;100693.18;;;32.39;19.10
54870;BME280;40756;-37.950;145.008;2023-03-18T02:37:52;100686.36;;;32.84;17.94
54870;BME280;40756;-37.950;145.008;2023-03-18T02:40:26;100699.64;;;33.46;18.16
54870;BME280;40756;-37.950;145.008;2023-03-18T02:42:56;100693.51;;;33.85;17.59
54870;BME280;40756;-37.950;145.008;2023-03-18T02:45:34;100680.45;;;33.75;17.58
54870;BME280;40756;-37.950;145.008;2023-03-18T02:48:08;100675.51;;;34.28;17.28
54870;BME280;40756;-37.950;145.008;2023-03-18T02:50:39;100663.83;;;34.85;17.27
54870;BME280;40756;-37.950;145.008;2023-03-18T02:53:09;100664.10;;;34.47;17.06
54870;BME280;40756;-37.950;145.008;2023-03-18T02:55:39;100656.35;;;33.69;17.21
54870;BME280;40756;-37.950;145.008;2023-03-18T02:58:08;100660.64;;;32.91;17.40
54870;BME280;40756;-37.950;145.008;2023-03-18T03:00:38;100662.54;;;33.30;17.65
54870;BME280;40756;-37.950;145.008;2023-03-18T03:03:09;100655.21;;;33.28;17.87
54870;BME280;40756;-37.950;145.008;2023-03-18T03:05:39;100662.54;;;33.89;17.36
54870;BME280;40756;-37.950;145.008;2023-03-18T03:08:08;100665.64;;;33.97;17.78
54870;BME280;40756;-37.950;145.008;2023-03-18T03:10:38;100667.97;;;34.01;17.50
54870;BME280;40756;-37.950;145.008;2023-03-18T03:13:08;100667.16;;;34.26;17.48
54870;BME280;40756;-37.950;145.008;2023-03-18T03:15:39;100660.73;;;34.11;17.09
54870;BME280;40756;-37.950;145.008;2023-03-18T03:18:09;100664.41;;;34.33;16.96
54870;BME280;40756;-37.950;145.008;2023-03-18T03:20:39;100664.94;;;32.34;19.00
54870;BME280;40756;-37.950;145.008;2023-03-18T03:23:11;100655.52;;;32.97;17.89
54870;BME280;40756;-37.950;145.008;2023-03-18T03:25:42;100648.64;;;33.30;17.97
54870;BME280;40756;-37.950;145.008;2023-03-18T03:28:12;100642.95;;;33.53;18.13
54870;BME280;40756;-37.950;145.008;2023-03-18T03:30:43;100646.83;;;32.91;19.26
54870;BME280;40756;-37.950;145.008;2023-03-18T03:33:12;100632.43;;;33.78;18.67
54870;BME280;40756;-37.950;145.008;2023-03-18T03:35:42;100632.46;;;33.57;17.80
54870;BME280;40756;-37.950;145.008;2023-03-18T03:38:11;100630.86;;;33.48;18.01
54870;BME280;40756;-37.950;145.008;2023-03-18T03:40:40;100635.73;;;33.91;18.72
54870;BME280;40756;-37.950;145.008;2023-03-18T03:43:12;100624.25;;;34.36;18.51
54870;BME280;40756;-37.950;145.008;2023-03-18T03:45:42;100625.41;;;34.54;17.78
54870;BME280;40756;-37.950;145.008;2023-03-18T03:48:12;100610.41;;;34.03;18.24
54870;BME280;40756;-37.950;145.008;2023-03-18T03:50:41;100608.72;;;33.94;17.90
54870;BME280;40756;-37.950;145.008;2023-03-18T03:53:10;100609.34;;;33.56;17.37
54870;BME280;40756;-37.950;145.008;2023-03-18T03:55:39;100611.31;;;33.13;17.83
54870;BME280;40756;-37.950;145.008;2023-03-18T03:58:09;100608.80;;;33.37;18.68
54870;BME280;40756;-37.950;145.008;2023-03-18T04:00:38;100604.90;;;33.33;18.28
54870;BME280;40756;-37.950;145.008;2023-03-18T04:03:09;100597.24;;;32.84;19.22
54870;BME280;40756;-37.950;145.008;2023-03-18T04:05:39;100594.98;;;33.27;18.78
54870;BME280;40756;-37.950;145.008;2023-03-18T04:08:09;100592.49;;;32.81;18.49
54870;BME280;40756;-37.950;145.008;2023-03-18T04:10:39;100590.56;;;33.52;19.22
54870;BME280;40756;-37.950;145.008;2023-03-18T04:13:08;100587.64;;;33.47;18.61
54870;BME280;40756;-37.950;145.008;2023-03-18T04:15:39;100586.04;;;33.76;18.99
54870;BME280;40756;-37.950;145.008;2023-03-18T04:18:09;100580.87;;;33.27;18.39
54870;BME280;40756;-37.950;145.008;2023-03-18T04:20:39;100579.16;;;33.85;18.43
54870;BME280;40756;-37.950;145.008;2023-03-18T04:23:09;100576.36;;;33.93;18.76
54870;BME280;40756;-37.950;145.008;2023-03-18T04:25:39;100565.42;;;33.51;19.09
54870;BME280;40756;-37.950;145.008;2023-03-18T04:28:08;100565.66;;;33.67;17.88
54870;BME280;40756;-37.950;145.008;2023-03-18T04:30:37;100563.22;;;34.52;18.01
54870;BME280;40756;-37.950;145.008;2023-03-18T04:33:06;100562.09;;;34.81;17.40
54870;BME280;40756;-37.950;145.008;2023-03-18T04:35:36;100559.57;;;35.28;17.16
54870;BME280;40756;-37.950;145.008;2023-03-18T04:38:05;100547.43;;;35.11;17.37
54870;BME280;40756;-37.950;145.008;2023-03-18T04:40:35;100559.58;;;34.52;17.02
54870;BME280;40756;-37.950;145.008;2023-03-18T04:43:04;100554.85;;;35.03;16.88
54870;BME280;40756;-37.950;145.008;2023-03-18T04:45:33;100560.21;;;34.74;16.65
54870;BME280;40756;-37.950;145.008;2023-03-18T04:48:02;100550.90;;;34.55;16.89
54870;BME280;40756;-37.950;145.008;2023-03-18T04:50:32;100548.53;;;35.21;16.16
54870;BME280;40756;-37.950;145.008;2023-03-18T04:53:01;100554.51;;;34.76;16.53
54870;BME280;40756;-37.950;145.008;2023-03-18T04:55:31;100549.74;;;34.28;16.65
54870;BME280;40756;-37.950;145.008;2023-03-18T04:58:00;100546.66;;;34.43;15.80
54870;BME280;40756;-37.950;145.008;2023-03-18T05:00:29;100553.13;;;34.63;15.62
54870;BME280;40756;-37.950;145.008;2023-03-18T05:02:59;100556.90;;;34.93;16.27
54870;BME280;40756;-37.950;145.008;2023-03-18T05:05:28;100558.02;;;34.61;15.70
54870;BME280;40756;-37.950;145.008;2023-03-18T05:07:58;100558.15;;;35.04;16.46
54870;BME280;40756;-37.950;145.008;2023-03-18T05:10:28;100558.58;;;34.26;15.57
54870;BME280;40756;-37.950;145.008;2023-03-18T05:12:57;100562.39;;;34.36;16.45
54870;BME280;40756;-37.950;145.008;2023-03-18T05:15:27;100560.29;;;33.94;16.86
54870;BME280;40756;-37.950;145.008;2023-03-18T05:17:57;100561.18;;;34.41;16.30
54870;BME280;40756;-37.950;145.008;2023-03-18T05:20:26;100558.91;;;33.80;17.22
54870;BME280;40756;-37.950;145.008;2023-03-18T05:22:56;100560.50;;;33.84;16.17
54870;BME280;40756;-37.950;145.008;2023-03-18T05:25:26;100564.60;;;34.98;16.31
54870;BME280;40756;-37.950;145.008;2023-03-18T05:27:56;100558.88;;;34.90;17.36
54870;BME280;40756;-37.950;145.008;2023-03-18T05:30:26;100557.97;;;35.21;17.32
54870;BME280;40756;-37.950;145.008;2023-03-18T05:32:55;100556.28;;;34.78;16.39
54870;BME280;40756;-37.950;145.008;2023-03-18T05:35:24;100555.82;;;35.44;16.03
54870;BME280;40756;-37.950;145.008;2023-03-18T05:37:53;100560.36;;;35.04;16.91
54870;BME280;40756;-37.950;145.008;2023-03-18T05:40:23;100559.54;;;35.51;16.76
54870;BME280;40756;-37.950;145.008;2023-03-18T05:42:52;100560.54;;;35.17;16.10
54870;BME280;40756;-37.950;145.008;2023-03-18T05:45:22;100561.84;;;35.60;17.19
54870;BME280;40756;-37.950;145.008;2023-03-18T05:47:51;100562.94;;;34.77;16.83
54870;BME280;40756;-37.950;145.008;2023-03-18T05:50:29;100566.57;;;34.86;16.17
54870;BME280;40756;-37.950;145.008;2023-03-18T05:52:59;100580.21;;;33.59;17.32
54870;BME280;40756;-37.950;145.008;2023-03-18T05:55:28;100636.83;;;30.95;25.96
54870;BME280;40756;-37.950;145.008;2023-03-18T05:57:59;100651.84;;;28.89;31.78
54870;BME280;40756;-37.950;145.008;2023-03-18T06:00:29;100646.27;;;25.97;37.14
54870;BME280;40756;-37.950;145.008;2023-03-18T06:02:59;100681.36;;;23.32;43.39
54870;BME280;40756;-37.950;145.008;2023-03-18T06:05:29;100681.58;;;25.60;41.04
54870;BME280;40756;-37.950;145.008;2023-03-18T06:07:59;100684.67;;;24.18;43.97
54870;BME280;40756;-37.950;145.008;2023-03-18T06:10:28;100687.63;;;24.05;44.41
54870;BME280;40756;-37.950;145.008;2023-03-18T06:12:57;100692.44;;;23.86;45.58
54870;BME280;40756;-37.950;145.008;2023-03-18T06:15:27;100716.50;;;22.43;48.18
54870;BME280;40756;-37.950;145.008;2023-03-18T06:17:57;100714.52;;;23.32;46.84
54870;BME280;40756;-37.950;145.008;2023-03-18T06:20:26;100725.71;;;23.51;47.90
54870;BME280;40756;-37.950;145.008;2023-03-18T06:22:56;100737.62;;;22.59;48.74
54870;BME280;40756;-37.950;145.008;2023-03-18T06:25:25;100739.28;;;22.69;49.50
54870;BME280;40756;-37.950;145.008;2023-03-18T06:27:54;100759.10;;;21.52;51.35
54870;BME280;40756;-37.950;145.008;2023-03-18T06:30:24;100751.92;;;22.32;50.68
54870;BME280;40756;-37.950;145.008;2023-03-18T06:32:53;100768.30;;;21.98;51.04
54870;BME280;40756;-37.950;145.008;2023-03-18T06:35:22;100779.29;;;22.79;49.44
54870;BME280;40756;-37.950;145.008;2023-03-18T06:37:51;100800.70;;;22.40;50.11
54870;BME280;40756;-37.950;145.008;2023-03-18T06:40:21;100809.85;;;22.22;50.34
54870;BME280;40756;-37.950;145.008;2023-03-18T06:42:50;100795.60;;;22.19;51.27
54870;BME280;40756;-37.950;145.008;2023-03-18T06:45:20;100832.11;;;22.01;51.08
54870;BME280;40756;-37.950;145.008;2023-03-18T06:47:50;100824.04;;;21.45;51.98
54870;BME280;40756;-37.950;145.008;2023-03-18T06:50:19;100826.79;;;21.60;51.94
54870;BME280;40756;-37.950;145.008;2023-03-18T06:52:49;100823.57;;;21.50;52.70
54870;BME280;40756;-37.950;145.008;2023-03-18T06:55:19;100861.48;;;21.67;52.61
54870;BME280;40756;-37.950;145.008;2023-03-18T06:57:48;100868.09;;;21.92;51.64
54870;BME280;40756;-37.950;145.008;2023-03-18T07:00:18;100878.21;;;22.11;50.86
54870;BME280;40756;-37.950;145.008;2023-03-18T07:02:48;100872.50;;;21.98;51.93
54870;BME280;40756;-37.950;145.008;2023-03-18T07:05:18;100874.13;;;20.97;53.31
54870;BME280;40756;-37.950;145.008;2023-03-18T07:07:47;100873.74;;;21.71;52.76
54870;BME280;40756;-37.950;145.008;2023-03-18T07:10:21;100887.15;;;22.29;50.85
54870;BME280;40756;-37.950;145.008;2023-03-18T07:12:52;100907.86;;;21.97;51.84
54870;BME280;40756;-37.950;145.008;2023-03-18T07:15:23;100910.34;;;22.16;51.21
54870;BME280;40756;-37.950;145.008;2023-03-18T07:17:52;100921.82;;;21.95;52.30
54870;BME280;40756;-37.950;145.008;2023-03-18T07:20:22;100933.25;;;21.75;52.25
54870;BME280;40756;-37.950;145.008;2023-03-18T07:22:58;100943.18;;;21.42;52.24
54870;BME280;40756;-37.950;145.008;2023-03-18T07:25:28;100926.38;;;22.14;49.90
54870;BME280;40756;-37.950;145.008;2023-03-18T07:27:58;100937.30;;;22.22;50.02
54870;BME280;40756;-37.950;145.008;2023-03-18T07:30:28;100929.05;;;21.78;51.74
54870;BME280;40756;-37.950;145.008;2023-03-18T07:32:57;100940.41;;;22.05;50.91
54870;BME280;40756;-37.950;145.008;2023-03-18T07:35:27;100957.28;;;21.83;50.81
54870;BME280;40756;-37.950;145.008;2023-03-18T07:37:56;100966.13;;;21.66;51.46
54870;BME280;40756;-37.950;145.008;2023-03-18T07:40:25;100980.32;;;21.90;51.16
54870;BME280;40756;-37.950;145.008;2023-03-18T07:42:55;100997.03;;;22.29;50.68
54870;BME280;40756;-37.950;145.008;2023-03-18T07:45:24;101003.26;;;21.68;51.79
54870;BME280;40756;-37.950;145.008;2023-03-18T07:47:54;100999.29;;;22.30;51.71
54870;BME280;40756;-37.950;145.008;2023-03-18T07:50:23;100999.06;;;21.24;53.93
54870;BME280;40756;-37.950;145.008;2023-03-18T07:52:53;101000.02;;;21.26;53.97
54870;BME280;40756;-37.950;145.008;2023-03-18T07:55:22;101007.58;;;21.85;53.03
54870;BME280;40756;-37.950;145.008;2023-03-18T07:57:52;101032.74;;;21.05;54.20
54870;BME280;40756;-37.950;145.008;2023-03-18T08:00:22;101035.95;;;21.12;53.89
54870;BME280;40756;-37.950;145.008;2023-03-18T08:02:51;101049.06;;;21.37;53.80
54870;BME280;40756;-37.950;145.008;2023-03-18T08:05:21;101062.37;;;20.99;54.46
54870;BME280;40756;-37.950;145.008;2023-03-18T08:07:50;101072.87;;;21.04;54.86
54870;BME280;40756;-37.950;145.008;2023-03-18T08:10:21;101080.03;;;20.63;56.03
54870;BME280;40756;-37.950;145.008;2023-03-18T08:12:51;101075.51;;;20.08;56.48
54870;BME280;40756;-37.950;145.008;2023-03-18T08:15:21;101090.90;;;20.57;55.84
54870;BME280;40756;-37.950;145.008;2023-03-18T08:17:50;101090.91;;;20.28;56.92
54870;BME280;40756;-37.950;145.008;2023-03-18T08:20:19;101089.64;;;21.06;55.76
54870;BME280;40756;-37.950;145.008;2023-03-18T08:22:50;101100.91;;;21.27;54.43
54870;BME280;40756;-37.950;145.008;2023-03-18T08:25:19;101116.75;;;20.80;55.88
54870;BME280;40756;-37.950;145.008;2023-03-18T08:27:50;101127.55;;;21.10;54.70
54870;BME280;40756;-37.950;145.008;2023-03-18T08:30:19;101133.51;;;21.39;53.80
54870;BME280;40756;-37.950;145.008;2023-03-18T08:32:49;101137.06;;;20.51;55.72
54870;BME280;40756;-37.950;145.008;2023-03-18T08:35:18;101146.71;;;21.44;53.69
54870;BME280;40756;-37.950;145.008;2023-03-18T08:37:48;101151.21;;;20.87;53.92
54870;BME280;40756;-37.950;145.008;2023-03-18T08:40:18;101162.54;;;21.23;53.60
54870;BME280;40756;-37.950;145.008;2023-03-18T08:42:47;101161.97;;;21.05;54.26
54870;BME280;40756;-37.950;145.008;2023-03-18T08:45:17;101167.56;;;20.64;55.25
54870;BME280;40756;-37.950;145.008;2023-03-18T08:47:47;101177.46;;;20.86;55.20
54870;BME280;40756;-37.950;145.008;2023-03-18T08:50:17;101177.17;;;20.60;55.56
54870;BME280;40756;-37.950;145.008;2023-03-18T08:52:46;101184.26;;;21.09;54.56
54870;BME280;40756;-37.950;145.008;2023-03-18T08:55:16;101182.00;;;20.96;55.21
54870;BME280;40756;-37.950;145.008;2023-03-18T08:57:45;101187.55;;;21.32;54.47
54870;BME280;40756;-37.950;145.008;2023-03-18T09:00:16;101195.12;;;21.49;53.64
54870;BME280;40756;-37.950;145.008;2023-03-18T09:02:46;101207.17;;;20.94;54.09
54870;BME280;40756;-37.950;145.008;2023-03-18T09:05:16;101214.08;;;21.82;52.74
54870;BME280;40756;-37.950;145.008;2023-03-18T09:07:45;101222.38;;;21.06;54.23
54870;BME280;40756;-37.950;145.008;2023-03-18T09:10:16;101225.16;;;21.09;54.37
54870;BME280;40756;-37.950;145.008;2023-03-18T09:12:46;101229.43;;;20.75;54.91
54870;BME280;40756;-37.950;145.008;2023-03-18T09:15:17;101248.85;;;21.09;54.08
54870;BME280;40756;-37.950;145.008;2023-03-18T09:17:47;101253.67;;;21.45;53.13
54870;BME280;40756;-37.950;145.008;2023-03-18T09:20:19;101254.39;;;22.04;51.89
54870;BME280;40756;-37.950;145.008;2023-03-18T09:22:49;101255.51;;;21.87;52.03
54870;BME280;40756;-37.950;145.008;2023-03-18T09:25:19;101267.62;;;21.10;53.71
54870;BME280;40756;-37.950;145.008;2023-03-18T09:27:48;101277.46;;;21.18;53.42
54870;BME280;40756;-37.950;145.008;2023-03-18T09:30:17;101286.57;;;21.85;51.76
54870;BME280;40756;-37.950;145.008;2023-03-18T09:32:47;101302.07;;;21.39;52.28
54870;BME280;40756;-37.950;145.008;2023-03-18T09:35:17;101312.13;;;21.58;52.09
54870;BME280;40756;-37.950;145.008;2023-03-18T09:37:47;101311.62;;;21.50;51.92
54870;BME280;40756;-37.950;145.008;2023-03-18T09:40:21;101317.33;;;21.58;51.31
54870;BME280;40756;-37.950;145.008;2023-03-18T09:43:03;101327.50;;;21.44;51.34
54870;BME280;40756;-37.950;145.008;2023-03-18T09:45:36;101329.61;;;20.60;52.58
54870;BME280;40756;-37.950;145.008;2023-03-18T09:48:37;101338.65;;;20.33;53.56
54870;BME280;40756;-37.950;145.008;2023-03-18T09:51:18;101349.88;;;21.14;52.44
54870;BME280;40756;-37.950;145.008;2023-03-18T09:53:54;101351.52;;;20.09;54.10
54870;BME280;40756;-37.950;145.008;2023-03-18T09:56:28;101355.94;;;21.11;53.38
54870;BME280;40756;-37.950;145.008;2023-03-18T09:59:01;101366.08;;;20.80;54.21
54870;BME280;40756;-37.950;145.008;2023-03-18T10:01:34;101375.27;;;20.69;53.97
54870;BME280;40756;-37.950;145.008;2023-03-18T10:04:09;101380.76;;;20.04;55.63
54870;BME280;40756;-37.950;145.008;2023-03-18T10:06:44;101391.13;;;20.93;53.74
54870;BME280;40756;-37.950;145.008;2023-03-18T10:09:21;101399.38;;;19.23;57.24
54870;BME280;40756;-37.950;145.008;2023-03-18T10:11:58;101416.33;;;19.14;57.77
54870;BME280;40756;-37.950;145.008;2023-03-18T10:14:40;101424.38;;;19.13;57.53
54870;BME280;40756;-37.950;145.008;2023-03-18T10:17:17;101425.52;;;19.00;58.49
54870;BME280;40756;-37.950;145.008;2023-03-18T10:19:50;101425.98;;;19.98;56.68
54870;BME280;40756;-37.950;145.008;2023-03-18T10:22:42;101430.26;;;19.73;56.45
54870;BME280;40756;-37.950;145.008;2023-03-18T10:25:25;101444.51;;;18.53;58.43
54870;BME280;40756;-37.950;145.008;2023-03-18T10:28:14;101446.73;;;19.13;58.18
54870;BME280;40756;-37.950;145.008;2023-03-18T10:30:54;101447.39;;;18.85;57.48
54870;BME280;40756;-37.950;145.008;2023-03-18T10:33:35;101462.32;;;19.83;56.12
54870;BME280;40756;-37.950;145.008;2023-03-18T10:36:14;101467.00;;;18.92;58.28
54870;BME280;40756;-37.950;145.008;2023-03-18T10:38:49;101470.29;;;18.40;58.03
54870;BME280;40756;-37.950;145.008;2023-03-18T10:41:22;101477.85;;;18.76;57.45
54870;BME280;40756;-37.950;145.008;2023-03-18T10:43:56;101486.30;;;18.73;57.91
54870;BME280;40756;-37.950;145.008;2023-03-18T10:46:26;101484.68;;;19.58;56.38
54870;BME280;40756;-37.950;145.008;2023-03-18T10:49:00;101486.32;;;19.14;56.86
54870;BME280;40756;-37.950;145.008;2023-03-18T10:51:38;101487.31;;;19.16;57.14
54870;BME280;40756;-37.950;145.008;2023-03-18T10:54:14;101485.13;;;19.62;56.02
54870;BME280;40756;-37.950;145.008;2023-03-18T10:56:46;101487.83;;;19.49;55.90
54870;BME280;40756;-37.950;145.008;2023-03-18T10:59:19;101486.89;;;19.36;55.16
54870;BME280;40756;-37.950;145.008;2023-03-18T11:01:52;101499.36;;;18.61;56.93
54870;BME280;40756;-37.950;145.008;2023-03-18T11:04:23;101504.58;;;18.76;56.96
54870;BME280;40756;-37.950;145.008;2023-03-18T11:06:56;101518.04;;;18.60;57.35
54870;BME280;40756;-37.950;145.008;2023-03-18T11:09:31;101508.23;;;18.34;57.52
54870;BME280;40756;-37.950;145.008;2023-03-18T11:12:05;101505.84;;;18.68;57.74
54870;BME280;40756;-37.950;145.008;2023-03-18T11:14:36;101509.90;;;18.42;57.57
54870;BME280;40756;-37.950;145.008;2023-03-18T11:17:16;101511.68;;;19.31;55.76
54870;BME280;40756;-37.950;145.008;2023-03-18T11:19:48;101514.07;;;19.64;55.00
54870;BME280;40756;-37.950;145.008;2023-03-18T11:22:20;101518.65;;;19.70;54.42
54870;BME280;40756;-37.950;145.008;2023-03-18T11:25:14;101528.03;;;19.41;54.96
54870;BME280;40756;-37.950;145.008;2023-03-18T11:27:47;101525.39;;;19.32;54.17
54870;BME280;40756;-37.950;145.008;2023-03-18T11:30:20;101527.08;;;20.08;53.94
54870;BME280;40756;-37.950;145.008;2023-03-18T11:32:56;101528.57;;;18.86;55.86
54870;BME280;40756;-37.950;145.008;2023-03-18T11:35:35;101525.25;;;18.52;56.43
54870;BME280;40756;-37.950;145.008;2023-03-18T11:38:12;101517.34;;;18.65;56.40
54870;BME280;40756;-37.950;145.008;2023-03-18T11:40:42;101517.82;;;19.10;55.33
54870;BME280;40756;-37.950;145.008;2023-03-18T11:43:18;101521.54;;;19.13;55.42
54870;BME280;40756;-37.950;145.008;2023-03-18T11:45:52;101531.23;;;19.04;55.20
54870;BME280;40756;-37.950;145.008;2023-03-18T11:48:31;101539.48;;;18.69;55.99
54870;BME280;40756;-37.950;145.008;2023-03-18T11:51:12;101534.95;;;18.84;54.97
54870;BME280;40756;-37.950;145.008;2023-03-18T11:53:55;101533.78;;;18.74;55.57
54870;BME280;40756;-37.950;145.008;2023-03-18T11:56:31;101534.03;;;18.77;54.81
54870;BME280;40756;-37.950;145.008;2023-03-18T11:59:13;101541.09;;;18.97;54.66
54870;BME280;40756;-37.950;145.008;2023-03-18T12:01:53;101541.22;;;18.27;55.62
54870;BME280;40756;-37.950;145.008;2023-03-18T12:04:54;101539.42;;;18.40;55.95
54870;BME280;40756;-37.950;145.008;2023-03-18T12:07:46;101545.34;;;18.55;55.31
54870;BME280;40756;-37.950;145.008;2023-03-18T12:10:25;101541.28;;;18.39;55.94
54870;BME280;40756;-37.950;145.008;2023-03-18T12:13:09;101537.56;;;18.87;55.52
54870;BME280;40756;-37.950;145.008;2023-03-18T12:15:48;101542.85;;;18.84;55.33
54870;BME280;40756;-37.950;145.008;2023-03-18T12:18:36;101542.62;;;19.21;54.45
54870;BME280;40756;-37.950;145.008;2023-03-18T12:21:41;101540.85;;;18.98;54.82
54870;BME280;40756;-37.950;145.008;2023-03-18T12:24:28;101538.25;;;18.86;55.48
54870;BME280;40756;-37.950;145.008;2023-03-18T12:27:05;101541.66;;;18.75;55.12
54870;BME280;40756;-37.950;145.008;2023-03-18T12:29:59;101540.06;;;19.17;54.35
54870;BME280;40756;-37.950;145.008;2023-03-18T12:32:36;101529.03;;;18.97;54.68
54870;BME280;40756;-37.950;145.008;2023-03-18T12:35:22;101530.77;;;18.72;55.35
54870;BME280;40756;-37.950;145.008;2023-03-18T12:38:30;101534.18;;;19.23;54.01
54870;BME280;40756;-37.950;145.008;2023-03-18T12:41:08;101536.06;;;18.04;55.45
54870;BME280;40756;-37.950;145.008;2023-03-18T12:43:51;101536.76;;;19.09;53.51
54870;BME280;40756;-37.950;145.008;2023-03-18T12:46:28;101537.79;;;18.99;53.83